Time;durP1;ratioP1;P1;durP2;ratioP2;P2;SDS_P1;SDS_P2;PMS_P1;PMS_P2;Temp;Humidity;BMP_temperature;BMP_pressure;BME280_temperature;BME280_humidity;BME280_pressure;Samples;Min_cycle;Max_cycle;Signal;HPM_P1;HPM_P2
2022/09/25 00:02:08;;;;;;;6.88;6.15;;;;;;;;;;5058249;28;20517;-88
2022/09/25 00:04:35;;;;;;;11.23;7.28;;;;;;;;;;5058120;28;20476;-89
2022/09/25 00:07:02;;;;;;;12.38;8.40;;;;;;;;;;5058475;28;20056;-89
2022/09/25 00:09:29;;;;;;;8.55;7.40;;;;;;;;;;5075943;28;20049;-88
2022/09/25 00:11:57;;;;;;;7.78;6.53;;;;;;;;;;5058233;28;20048;-89
2022/09/25 00:14:24;;;;;;;7.13;6.43;;;;;;;;;;5075699;28;20057;-89
2022/09/25 00:16:51;;;;;;;26.33;21.73;;;;;;;;;;5058078;28;20045;-89
2022/09/25 00:22:06;;;;;;;19.48;14.85;;;;;;;;;;5074999;28;20135;-89
2022/09/25 00:24:33;;;;;;;13.52;9.25;;;;;;;;;;5075451;28;20079;-89
2022/09/25 00:27:00;;;;;;;10.43;6.82;;;;;;;;;;5075525;28;20421;-87
2022/09/25 00:29:29;;;;;;;10.43;7.25;;;;;;;;;;5075253;28;20049;-89
2022/09/25 00:31:56;;;;;;;10.77;6.43;;;;;;;;;;5075276;28;20050;-89
2022/09/25 00:34:23;;;;;;;7.47;6.40;;;;;;;;;;5075139;28;20500;-89
2022/09/25 00:36:50;;;;;;;7.82;6.30;;;;;;;;;;5058290;28;20459;-89
2022/09/25 00:39:17;;;;;;;6.78;6.13;;;;;;;;;;5075293;28;20048;-89
2022/09/25 00:41:45;;;;;;;6.65;6.00;;;;;;;;;;5075067;28;20489;-89
2022/09/25 00:44:31;;;;;;;8.82;7.00;;;;;;;;;;5057636;28;20102;-89
2022/09/25 00:46:58;;;;;;;6.53;5.93;;;;;;;;;;5075124;28;20055;-89
2022/09/25 00:49:26;;;;;;;6.80;6.20;;;;;;;;;;5057469;28;20044;-89
2022/09/25 00:51:58;;;;;;;7.13;6.47;;;;;;;;;;5057583;28;20052;-89
2022/09/25 00:54:27;;;;;;;7.05;6.00;;;;;;;;;;5074567;28;20059;-89
2022/09/25 00:56:55;;;;;;;6.75;6.15;;;;;;;;;;5057424;28;20052;-89
2022/09/25 00:59:24;;;;;;;8.57;6.70;;;;;;;;;;5074880;28;20435;-88
2022/09/25 01:01:51;;;;;;;6.75;6.07;;;;;;;;;;5074696;28;20055;-89
2022/09/25 01:04:21;;;;;;;7.47;6.75;;;;;;;;;;5057104;28;20055;-88
2022/09/25 01:06:49;;;;;;;9.48;6.78;;;;;;;;;;5057187;28;20091;-89
2022/09/25 01:09:16;;;;;;;11.02;6.80;;;;;;;;;;5074305;28;20042;-88
2022/09/25 01:11:44;;;;;;;8.48;7.13;;;;;;;;;;5057185;28;20067;-89
2022/09/25 01:14:16;;;;;;;8.52;7.60;;;;;;;;;;5057053;28;20045;-89
2022/09/25 01:16:57;;;;;;;13.65;8.70;;;;;;;;;;5074450;28;20087;-89
2022/09/25 01:19:24;;;;;;;8.88;7.97;;;;;;;;;;5074517;28;20060;-89
2022/09/25 01:22:01;;;;;;;14.35;10.50;;;;;;;;;;5074275;28;20045;-89
2022/09/25 01:24:42;;;;;;;9.52;8.43;;;;;;;;;;5056420;28;20063;-89
2022/09/25 01:27:25;;;;;;;12.25;9.80;;;;;;;;;;5056850;28;20063;-89
2022/09/25 01:29:58;;;;;;;14.95;13.45;;;;;;;;;;5074186;28;20408;-89
2022/09/25 01:32:44;;;;;;;13.38;11.23;;;;;;;;;;5073977;28;20079;-89
2022/09/25 01:35:14;;;;;;;10.82;9.73;;;;;;;;;;5056467;28;20489;-88
2022/09/25 01:37:44;;;;;;;10.23;8.82;;;;;;;;;;5074379;28;20045;-89
2022/09/25 01:40:32;;;;;;;10.82;9.40;;;;;;;;;;5056855;28;20055;-89
2022/09/25 01:43:14;;;;;;;11.63;8.25;;;;;;;;;;5074120;28;20480;-89
2022/09/25 01:45:52;;;;;;;11.38;8.85;;;;;;;;;;5074127;28;20044;-89
2022/09/25 01:48:23;;;;;;;9.20;8.25;;;;;;;;;;5056463;28;20062;-88
2022/09/25 01:50:57;;;;;;;14.13;8.75;;;;;;;;;;5074115;28;20114;-89
2022/09/25 01:53:38;;;;;;;10.15;7.85;;;;;;;;;;5056668;28;20044;-89
2022/09/25 01:56:11;;;;;;;9.75;7.72;;;;;;;;;;5074228;28;20473;-89
2022/09/25 01:58:38;;;;;;;;;;;;;;;;;;5056936;28;20050;-88
2022/09/25 02:01:11;;;;;;;8.40;7.53;;;;;;;;;;5073734;28;20368;-88
2022/09/25 02:03:46;;;;;;;9.98;6.90;;;;;;;;;;5056329;28;20056;-89
2022/09/25 02:06:18;;;;;;;10.48;8.23;;;;;;;;;;5056277;28;20051;-89
2022/09/25 02:08:48;;;;;;;9.63;7.97;;;;;;;;;;5073828;28;20048;-89
2022/09/25 02:11:16;;;;;;;7.82;7.07;;;;;;;;;;5056098;28;20396;-88
2022/09/25 02:13:48;;;;;;;9.77;7.72;;;;;;;;;;5056405;28;20405;-89
2022/09/25 02:16:17;;;;;;;8.48;7.57;;;;;;;;;;5055987;28;20041;-89
2022/09/25 02:21:49;;;;;;;9.20;7.80;;;;;;;;;;5073375;28;20056;-89
2022/09/25 02:24:21;;;;;;;12.38;7.10;;;;;;;;;;5073122;28;20057;-89
2022/09/25 02:26:49;;;;;;;11.43;7.70;;;;;;;;;;5055944;28;20052;-89
2022/09/25 02:29:17;;;;;;;8.43;7.22;;;;;;;;;;5055905;28;20041;-89
2022/09/25 02:31:47;;;;;;;8.43;7.30;;;;;;;;;;5073595;28;20052;-89
2022/09/25 02:34:15;;;;;;;9.15;6.75;;;;;;;;;;5055695;28;20044;-89
2022/09/25 02:36:43;;;;;;;8.70;6.90;;;;;;;;;;5055752;28;20132;-89
2022/09/25 02:39:13;;;;;;;8.93;6.40;;;;;;;;;;5055823;28;20467;-88
2022/09/25 02:42:08;;;;;;;7.60;6.80;;;;;;;;;;5073417;28;20443;-88
2022/09/25 02:45:14;;;;;;;8.90;6.68;;;;;;;;;;5075059;28;20048;-88
2022/09/25 02:47:53;;;;;;;9.77;7.72;;;;;;;;;;4960630;28;20179;-89
2022/09/25 02:50:26;;;;;;;11.13;7.50;;;;;;;;;;4960834;28;20066;-89
2022/09/25 02:52:59;;;;;;;8.38;7.53;;;;;;;;;;5037603;28;20059;-89
2022/09/25 02:55:36;;;;;;;9.93;7.57;;;;;;;;;;5077068;28;20504;-89
2022/09/25 02:58:06;;;;;;;7.85;7.05;;;;;;;;;;5059836;28;20404;-89
2022/09/25 03:00:35;;;;;;;7.60;6.90;;;;;;;;;;5077208;28;20054;-89
2022/09/25 03:03:05;;;;;;;9.57;6.65;;;;;;;;;;5059588;28;20048;-89
2022/09/25 03:05:32;;;;;;;7.70;7.00;;;;;;;;;;5059707;28;20123;-89
2022/09/25 03:10:45;;;;;;;7.32;6.63;;;;;;;;;;5077074;28;20063;-89
2022/09/25 03:13:17;;;;;;;8.68;7.32;;;;;;;;;;5059281;28;20053;-88
2022/09/25 03:15:47;;;;;;;7.63;6.57;;;;;;;;;;5059211;28;20064;-89
2022/09/25 03:18:15;;;;;;;7.63;6.72;;;;;;;;;;5059332;28;20140;-88
2022/09/25 03:20:43;;;;;;;8.00;7.15;;;;;;;;;;5059264;28;20053;-89
2022/09/25 03:23:10;;;;;;;8.18;6.70;;;;;;;;;;5076449;28;20056;-88
2022/09/25 03:25:38;;;;;;;9.15;7.00;;;;;;;;;;5059053;28;20056;-89
2022/09/25 03:28:13;;;;;;;7.50;6.60;;;;;;;;;;5058842;28;20067;-89
2022/09/25 03:30:40;;;;;;;9.98;7.78;;;;;;;;;;5076477;28;20063;-88
2022/09/25 03:33:09;;;;;;;11.25;7.28;;;;;;;;;;5076421;28;20071;-89
2022/09/25 03:35:40;;;;;;;9.23;7.30;;;;;;;;;;5058725;28;20049;-89
2022/09/25 03:38:07;;;;;;;8.60;7.30;;;;;;;;;;5058599;28;20053;-89
2022/09/25 03:40:34;;;;;;;8.20;7.40;;;;;;;;;;5058790;28;20481;-89
2022/09/25 03:43:04;;;;;;;10.07;7.55;;;;;;;;;;5076289;28;20051;-89
2022/09/25 03:45:30;;;;;;;8.85;7.53;;;;;;;;;;5058391;28;20131;-89
2022/09/25 03:47:57;;;;;;;8.77;7.63;;;;;;;;;;5058651;28;20052;-88
2022/09/25 03:50:24;;;;;;;8.45;7.10;;;;;;;;;;5076225;28;20051;-89
2022/09/25 03:52:51;;;;;;;10.38;7.22;;;;;;;;;;5076183;28;20059;-89
2022/09/25 03:55:19;;;;;;;9.55;8.55;;;;;;;;;;5057226;28;20044;-89
2022/09/25 03:57:46;;;;;;;8.75;7.95;;;;;;;;;;5058346;28;20056;-89
2022/09/25 04:00:15;;;;;;;9.82;7.93;;;;;;;;;;5058452;28;20049;-89
2022/09/25 04:02:43;;;;;;;11.70;8.95;;;;;;;;;;5058727;28;20052;-89
2022/09/25 04:05:10;;;;;;;9.90;8.90;;;;;;;;;;5058196;28;20084;-89
2022/09/25 04:07:37;;;;;;;12.65;9.52;;;;;;;;;;5058426;28;20052;-89
2022/09/25 04:10:05;;;;;;;12.88;10.50;;;;;;;;;;5058212;28;20052;-88
2022/09/25 04:12:32;;;;;;;10.48;9.38;;;;;;;;;;5057917;28;20370;-88
2022/09/25 04:15:00;;;;;;;10.73;7.90;;;;;;;;;;5057933;28;20048;-89
2022/09/25 04:17:28;;;;;;;13.63;7.32;;;;;;;;;;5075724;28;20051;-88
2022/09/25 04:19:55;;;;;;;7.85;7.05;;;;;;;;;;5075530;28;20048;-88
2022/09/25 04:22:22;;;;;;;8.00;6.63;;;;;;;;;;5057698;28;20049;-89
2022/09/25 04:24:50;;;;;;;8.75;6.75;;;;;;;;;;5057660;28;20069;-89
2022/09/25 04:27:18;;;;;;;6.88;6.28;;;;;;;;;;5075262;28;20044;-88
2022/09/25 04:29:45;;;;;;;7.65;6.95;;;;;;;;;;5056805;28;20428;-87
2022/09/25 04:34:59;;;;;;;8.02;6.45;;;;;;;;;;5075200;28;20055;-88
2022/09/25 04:37:27;;;;;;;10.23;7.25;;;;;;;;;;5074981;28;20492;-88
2022/09/25 04:39:57;;;;;;;7.07;6.47;;;;;;;;;;5075293;28;20041;-88
2022/09/25 04:42:24;;;;;;;6.95;6.28;;;;;;;;;;5057820;28;20060;-89
2022/09/25 04:44:52;;;;;;;7.95;6.95;;;;;;;;;;5075078;28;20059;-88
2022/09/25 04:47:20;;;;;;;8.52;7.43;;;;;;;;;;5057720;28;20507;-89
2022/09/25 04:49:47;;;;;;;7.35;6.68;;;;;;;;;;5057644;28;20048;-89
2022/09/25 04:52:15;;;;;;;6.95;6.22;;;;;;;;;;5057217;28;20048;-88
2022/09/25 04:54:42;;;;;;;7.72;6.20;;;;;;;;;;5074819;28;20119;-88
2022/09/25 04:57:13;;;;;;;6.93;6.32;;;;;;;;;;5057570;28;20056;-89
2022/09/25 04:59:59;;;;;;;7.20;6.50;;;;;;;;;;5074900;28;20058;-89
2022/09/25 05:02:27;;;;;;;7.68;6.97;;;;;;;;;;5057241;28;20052;-89
2022/09/25 05:04:54;;;;;;;8.95;7.07;;;;;;;;;;5056979;28;20048;-89
2022/09/25 05:07:21;;;;;;;7.38;6.50;;;;;;;;;;5074309;28;20048;-89
2022/09/25 05:09:49;;;;;;;10.32;7.78;;;;;;;;;;5057450;28;20195;-89
2022/09/25 05:12:16;;;;;;;8.75;7.78;;;;;;;;;;5074681;28;20526;-89
2022/09/25 05:14:43;;;;;;;8.70;7.90;;;;;;;;;;5056890;28;20477;-89
2022/09/25 05:17:10;;;;;;;10.27;7.03;;;;;;;;;;5056839;28;20143;-89
2022/09/25 05:19:38;;;;;;;8.32;7.13;;;;;;;;;;5074461;28;20089;-88
2022/09/25 05:22:05;;;;;;;8.00;6.78;;;;;;;;;;5057027;28;20053;-89
2022/09/25 05:24:32;;;;;;;7.43;6.72;;;;;;;;;;5056620;28;20059;-89
2022/09/25 05:26:59;;;;;;;7.43;6.55;;;;;;;;;;5056900;28;20049;-89
2022/09/25 05:29:26;;;;;;;9.57;7.13;;;;;;;;;;5056890;28;20049;-89
2022/09/25 05:31:55;;;;;;;11.15;6.72;;;;;;;;;;5074407;28;20393;-89
2022/09/25 05:34:22;;;;;;;7.45;6.72;;;;;;;;;;5056701;28;20055;-89
2022/09/25 05:36:49;;;;;;;7.60;6.85;;;;;;;;;;5056830;28;20131;-90
2022/09/25 05:39:16;;;;;;;10.68;6.93;;;;;;;;;;5056770;28;20131;-90
2022/09/25 05:41:43;;;;;;;8.70;7.05;;;;;;;;;;5074253;28;20045;-90
2022/09/25 05:44:10;;;;;;;7.72;6.97;;;;;;;;;;5056175;28;20515;-90
2022/09/25 05:46:39;;;;;;;9.52;7.45;;;;;;;;;;5056736;28;20048;-89
2022/09/25 05:49:06;;;;;;;16.20;7.63;;;;;;;;;;5056669;28;20056;-89
2022/09/25 05:51:33;;;;;;;7.80;6.75;;;;;;;;;;5056696;28;20048;-89
2022/09/25 05:54:00;;;;;;;14.60;6.38;;;;;;;;;;5073955;28;20044;-89
2022/09/25 05:56:28;;;;;;;15.85;6.22;;;;;;;;;;5056532;28;20472;-89
2022/09/25 05:58:57;;;;;;;10.52;6.47;;;;;;;;;;5073867;28;20059;-89
2022/09/25 06:01:24;;;;;;;9.35;6.40;;;;;;;;;;5056379;28;20052;-89
2022/09/25 06:03:52;;;;;;;5.90;5.18;;;;;;;;;;5056580;28;20049;-89
2022/09/25 06:06:19;;;;;;;5.93;5.43;;;;;;;;;;5056119;28;20041;-88
2022/09/25 06:08:53;;;;;;;5.82;5.03;;;;;;;;;;5056985;28;20076;-89
2022/09/25 06:11:21;;;;;;;5.78;5.22;;;;;;;;;;5055793;28;20044;-89
2022/09/25 06:13:49;;;;;;;5.38;4.72;;;;;;;;;;5056074;28;20489;-89
2022/09/25 06:16:20;;;;;;;7.10;4.78;;;;;;;;;;5056881;28;20080;-89
2022/09/25 06:18:48;;;;;;;5.45;4.95;;;;;;;;;;5073130;28;20048;-89
2022/09/25 06:21:15;;;;;;;7.03;4.88;;;;;;;;;;5055994;28;20476;-89
2022/09/25 06:23:45;;;;;;;4.72;4.32;;;;;;;;;;5055648;28;20128;-89
2022/09/25 06:26:13;;;;;;;5.25;4.70;;;;;;;;;;5055757;28;20124;-89
2022/09/25 06:28:40;;;;;;;5.10;4.65;;;;;;;;;;5056088;28;20048;-89
2022/09/25 06:31:07;;;;;;;4.97;4.47;;;;;;;;;;5073366;28;20052;-89
2022/09/25 06:33:34;;;;;;;4.75;4.40;;;;;;;;;;5056106;28;20098;-89
2022/09/25 06:36:01;;;;;;;5.45;4.38;;;;;;;;;;5073258;28;20060;-88
2022/09/25 06:38:29;;;;;;;5.88;4.93;;;;;;;;;;5055775;28;20389;-89
2022/09/25 06:40:58;;;;;;;5.85;5.10;;;;;;;;;;5073366;28;20563;-89
2022/09/25 06:43:27;;;;;;;7.35;4.88;;;;;;;;;;5055981;28;20149;-89
2022/09/25 06:45:54;;;;;;;5.57;4.85;;;;;;;;;;5073392;28;20140;-89
2022/09/25 06:48:21;;;;;;;6.65;4.60;;;;;;;;;;5055540;28;20040;-89
2022/09/25 06:50:52;;;;;;;4.68;4.10;;;;;;;;;;5055613;28;20503;-88
2022/09/25 06:53:20;;;;;;;13.50;5.40;;;;;;;;;;5055535;28;20068;-89
2022/09/25 06:55:48;;;;;;;10.60;5.45;;;;;;;;;;5055580;28;20051;-89
2022/09/25 06:58:18;;;;;;;11.60;5.13;;;;;;;;;;5055713;28;20250;-90
2022/09/25 07:00:46;;;;;;;7.65;5.18;;;;;;;;;;5073069;28;20048;-90
2022/09/25 07:05:59;;;;;;;11.48;8.40;;;;;;;;;;5072973;28;20049;-90
2022/09/25 07:08:27;;;;;;;8.82;6.47;;;;;;;;;;5073129;28;20492;-89
2022/09/25 07:10:55;;;;;;;10.07;6.13;;;;;;;;;;5073389;28;20060;-91
2022/09/25 07:13:23;;;;;;;12.55;7.03;;;;;;;;;;5073173;28;20076;-89
2022/09/25 07:15:54;;;;;;;39.00;22.73;;;;;;;;;;5055043;28;20060;-90
2022/09/25 07:18:22;;;;;;;20.95;11.95;;;;;;;;;;5072934;28;20125;-90
2022/09/25 07:20:50;;;;;;;20.20;9.95;;;;;;;;;;5055511;28;20048;-91
2022/09/25 07:23:18;;;;;;;17.63;9.05;;;;;;;;;;5055128;28;20044;-90
2022/09/25 07:25:45;;;;;;;93.25;52.25;;;;;;;;;;5055109;28;20051;-91
2022/09/25 07:28:17;;;;;;;28.17;13.52;;;;;;;;;;5055731;28;20050;-91
2022/09/25 07:30:45;;;;;;;27.42;11.35;;;;;;;;;;5075895;28;20048;-92
2022/09/25 07:33:12;;;;;;;23.13;10.23;;;;;;;;;;5060072;28;20116;-90
2022/09/25 07:35:40;;;;;;;29.08;7.72;;;;;;;;;;5059258;28;20135;-91
2022/09/25 07:38:07;;;;;;;16.60;5.88;;;;;;;;;;5059146;28;20044;-93
2022/09/25 07:40:34;;;;;;;15.05;5.22;;;;;;;;;;5059510;28;20054;-92
2022/09/25 07:43:02;;;;;;;24.67;14.52;;;;;;;;;;5058707;28;20087;-93
2022/09/25 07:45:29;;;;;;;11.88;5.35;;;;;;;;;;5076666;28;20404;-91
2022/09/25 07:47:57;;;;;;;15.75;8.48;;;;;;;;;;5058675;28;20489;-92
2022/09/25 07:50:27;;;;;;;11.50;6.03;;;;;;;;;;5059132;28;20048;-93
2022/09/25 07:52:55;;;;;;;8.75;5.93;;;;;;;;;;5059358;28;20070;-92
2022/09/25 07:55:22;;;;;;;12.30;5.45;;;;;;;;;;5076179;28;20040;-92
2022/09/25 07:57:50;;;;;;;11.32;5.22;;;;;;;;;;5059777;28;20053;-93
2022/09/25 08:00:18;;;;;;;9.85;6.10;;;;;;;;;;5058390;28;20048;-92
2022/09/25 08:02:54;;;;;;;8.40;5.68;;;;;;;;;;5058725;28;20080;-92
2022/09/25 08:05:21;;;;;;;6.85;5.95;;;;;;;;;;5058748;28;20045;-94
2022/09/25 08:07:48;;;;;;;12.32;6.35;;;;;;;;;;5076636;28;20056;-93
2022/09/25 08:10:15;;;;;;;13.93;5.82;;;;;;;;;;5076238;28;20045;-93
2022/09/25 08:12:42;;;;;;;8.38;4.90;;;;;;;;;;5058369;28;20063;-93
2022/09/25 08:15:10;;;;;;;8.73;4.55;;;;;;;;;;5060763;28;20442;-93
2022/09/25 08:17:37;;;;;;;8.48;5.40;;;;;;;;;;5059713;28;20476;-92
2022/09/25 08:20:04;;;;;;;7.97;5.13;;;;;;;;;;5058188;28;20416;-92
2022/09/25 08:22:32;;;;;;;7.72;5.05;;;;;;;;;;5058557;28;20056;-93
2022/09/25 08:25:02;;;;;;;9.65;4.75;;;;;;;;;;5058117;28;20090;-93
2022/09/25 08:27:30;;;;;;;5.13;4.00;;;;;;;;;;5058321;28;20123;-92
2022/09/25 08:29:57;;;;;;;7.25;5.20;;;;;;;;;;5075739;28;20128;-94
2022/09/25 08:32:24;;;;;;;6.88;5.25;;;;;;;;;;5058386;28;20049;-92
2022/09/25 08:34:51;;;;;;;8.73;5.85;;;;;;;;;;5075437;28;20408;-92
2022/09/25 08:37:19;;;;;;;6.72;6.13;;;;;;;;;;5057952;28;20056;-93
2022/09/25 08:39:46;;;;;;;7.80;6.55;;;;;;;;;;5058282;28;20052;-93
2022/09/25 08:42:18;;;;;;;8.52;6.10;;;;;;;;;;5057745;28;20060;-93
2022/09/25 08:49:00;;;;;;;6.72;6.07;;;;;;;;;;5075328;28;20139;-92
2022/09/25 08:50:34;;;;;;;7.55;5.38;;;;;;;;;;5075544;28;20079;-94
2022/09/25 08:53:11;;;;;;;8.82;6.30;;;;;;;;;;5075753;28;20382;-94
2022/09/25 08:58:29;;;;;;;6.55;5.95;;;;;;;;;;5077057;28;20059;-92
2022/09/25 09:01:01;;;;;;;6.60;5.90;;;;;;;;;;5075754;28;20044;-92
2022/09/25 09:03:31;;;;;;;7.43;6.30;;;;;;;;;;5058534;28;20110;-93
2022/09/25 09:06:02;;;;;;;7.90;6.32;;;;;;;;;;5062326;28;20064;-90
2022/09/25 09:08:30;;;;;;;7.18;6.47;;;;;;;;;;5060487;28;20048;-93
2022/09/25 09:11:01;;;;;;;9.27;6.93;;;;;;;;;;5077703;28;20044;-93
2022/09/25 09:13:32;;;;;;;7.05;6.40;;;;;;;;;;5057294;28;20052;-94
2022/09/25 09:15:59;;;;;;;7.05;6.35;;;;;;;;;;5074464;28;20048;-94
2022/09/25 09:18:31;;;;;;;9.93;7.28;;;;;;;;;;5059685;28;20577;-93
2022/09/25 09:21:03;;;;;;;7.95;7.10;;;;;;;;;;5058515;28;20052;-92
2022/09/25 09:23:40;;;;;;;7.05;6.40;;;;;;;;;;5056973;28;20136;-91
2022/09/25 09:26:13;;;;;;;7.13;6.53;;;;;;;;;;5075077;28;20048;-93
2022/09/25 09:28:45;;;;;;;8.18;7.35;;;;;;;;;;5057952;28;20117;-93
2022/09/25 09:31:16;;;;;;;8.52;7.72;;;;;;;;;;5074739;28;20045;-93
2022/09/25 09:33:53;;;;;;;7.45;6.72;;;;;;;;;;5074871;28;20411;-92
2022/09/25 09:36:31;;;;;;;7.35;6.40;;;;;;;;;;5056997;28;20052;-92
2022/09/25 09:38:59;;;;;;;8.25;7.38;;;;;;;;;;5056621;28;20048;-93
2022/09/25 09:41:29;;;;;;;8.07;6.32;;;;;;;;;;5056815;28;20048;-91
2022/09/25 09:44:24;;;;;;;8.45;6.53;;;;;;;;;;5056479;28;20516;-92
2022/09/25 09:46:59;;;;;;;6.10;5.50;;;;;;;;;;5025549;28;20048;-91
2022/09/25 09:49:32;;;;;;;6.57;5.63;;;;;;;;;;5058728;28;20083;-88
2022/09/25 09:52:18;;;;;;;6.25;4.53;;;;;;;;;;5075682;28;20049;-93
2022/09/25 09:54:57;;;;;;;6.78;6.10;;;;;;;;;;5056553;28;20049;-93
2022/09/25 09:57:24;;;;;;;6.47;5.88;;;;;;;;;;5058418;28;20048;-92
2022/09/25 09:59:56;;;;;;;6.55;5.95;;;;;;;;;;5059044;28;20055;-92
2022/09/25 10:02:39;;;;;;;6.80;5.72;;;;;;;;;;5057657;28;20052;-91
2022/09/25 10:05:27;;;;;;;6.50;5.90;;;;;;;;;;5073883;28;20063;-92
2022/09/25 10:07:54;;;;;;;9.13;5.85;;;;;;;;;;5057400;28;20071;-92
2022/09/25 10:10:23;;;;;;;7.03;5.82;;;;;;;;;;5074067;28;20487;-91
2022/09/25 10:12:52;;;;;;;6.10;5.60;;;;;;;;;;5056453;28;20053;-92
2022/09/25 10:15:32;;;;;;;6.47;5.18;;;;;;;;;;5056310;28;20045;-91
2022/09/25 10:18:00;;;;;;;6.00;5.50;;;;;;;;;;5074219;28;20120;-91
2022/09/25 10:20:33;;;;;;;7.28;6.25;;;;;;;;;;5058491;28;20048;-93
2022/09/25 10:23:02;;;;;;;6.20;5.60;;;;;;;;;;5056005;28;20404;-90
2022/09/25 10:25:37;;;;;;;7.07;6.03;;;;;;;;;;5057571;28;20048;-91
2022/09/25 10:28:21;;;;;;;6.90;6.03;;;;;;;;;;5056132;28;20052;-90
2022/09/25 10:30:48;;;;;;;6.53;5.93;;;;;;;;;;5055466;28;20126;-89
2022/09/25 10:33:23;;;;;;;6.43;5.70;;;;;;;;;;5074184;28;20094;-86
2022/09/25 10:35:53;;;;;;;6.78;5.55;;;;;;;;;;5055785;28;20079;-90
2022/09/25 10:38:37;;;;;;;7.75;6.50;;;;;;;;;;5056576;28;20040;-88
2022/09/25 10:41:05;;;;;;;7.50;6.80;;;;;;;;;;5056827;28;20041;-92
2022/09/25 10:43:32;;;;;;;6.20;5.70;;;;;;;;;;5073585;28;20056;-90
2022/09/25 10:50:09;;;;;;;9.10;6.00;;;;;;;;;;5055610;28;20049;-89
2022/09/25 10:52:04;;;;;;;7.35;6.72;;;;;;;;;;5074992;28;20044;-90
2022/09/25 10:54:32;;;;;;;9.48;6.63;;;;;;;;;;5073810;28;20049;-89
2022/09/25 10:56:59;;;;;;;7.85;6.20;;;;;;;;;;5055816;28;20139;-91
2022/09/25 10:59:27;;;;;;;6.80;6.15;;;;;;;;;;5055682;28;20535;-90
2022/09/25 11:01:55;;;;;;;6.82;6.13;;;;;;;;;;5055958;28;20091;-90
2022/09/25 11:04:24;;;;;;;7.80;6.53;;;;;;;;;;5055481;28;20550;-90
2022/09/25 11:06:53;;;;;;;8.82;6.70;;;;;;;;;;5059349;28;20411;-91
2022/09/25 11:09:24;;;;;;;8.23;6.43;;;;;;;;;;5060450;28;20135;-90
2022/09/25 11:11:53;;;;;;;7.18;6.28;;;;;;;;;;5059885;28;20052;-90
2022/09/25 11:14:31;;;;;;;7.57;6.13;;;;;;;;;;5059320;28;20060;-89
2022/09/25 11:16:59;;;;;;;5.72;5.10;;;;;;;;;;5076872;28;20044;-90
2022/09/25 11:19:30;;;;;;;6.70;6.00;;;;;;;;;;5059245;28;20060;-91
2022/09/25 11:21:58;;;;;;;7.55;6.65;;;;;;;;;;5077481;28;20048;-90
2022/09/25 11:24:48;;;;;;;5.97;5.38;;;;;;;;;;5059084;28;20131;-89
2022/09/25 11:27:19;;;;;;;7.95;5.80;;;;;;;;;;5058999;28;20132;-91
2022/09/25 11:29:53;;;;;;;6.72;6.03;;;;;;;;;;5060632;28;20389;-89
2022/09/25 11:32:24;;;;;;;6.70;6.10;;;;;;;;;;5059611;28;20052;-92
2022/09/25 11:34:57;;;;;;;137.73;74.50;;;;;;;;;;5060252;28;20059;-87
2022/09/25 11:37:24;;;;;;;;;;;;;;;;;;5060915;28;20507;-90
2022/09/25 11:42:52;;;;;;;115.35;46.38;;;;;;;;;;5077187;28;20045;-90
2022/09/25 11:45:29;;;;;;;7.50;6.75;;;;;;;;;;5077418;28;20198;-90
2022/09/25 11:48:05;;;;;;;12.32;5.60;;;;;;;;;;5076390;28;20135;-90
2022/09/25 11:50:45;;;;;;;8.38;5.75;;;;;;;;;;5076560;28;20055;-89
2022/09/25 11:53:24;;;;;;;9.45;6.65;;;;;;;;;;5061822;28;20075;-92
2022/09/25 11:56:13;;;;;;;7.35;5.43;;;;;;;;;;5059464;28;20075;-88
2022/09/25 11:58:56;;;;;;;7.75;5.28;;;;;;;;;;5077786;28;20540;-90
2022/09/25 12:01:35;;;;;;;7.40;5.40;;;;;;;;;;5076352;28;20048;-89
2022/09/25 12:04:13;;;;;;;5.85;5.25;;;;;;;;;;5076137;28;20405;-90
2022/09/25 12:06:53;;;;;;;5.32;4.85;;;;;;;;;;5058750;28;20107;-90
2022/09/25 12:09:41;;;;;;;6.22;5.70;;;;;;;;;;5058713;28;20048;-89
2022/09/25 12:12:11;;;;;;;10.85;5.88;;;;;;;;;;5059177;28;20127;-91
2022/09/25 12:15:02;;;;;;;7.75;5.88;;;;;;;;;;5058730;28;20044;-89
2022/09/25 12:17:39;;;;;;;8.68;6.13;;;;;;;;;;5057256;28;20048;-89
2022/09/25 12:20:15;;;;;;;6.15;5.63;;;;;;;;;;5058089;28;20044;-89
2022/09/25 12:22:48;;;;;;;7.28;5.43;;;;;;;;;;5058043;28;20049;-89
2022/09/25 12:25:25;;;;;;;4.15;3.85;;;;;;;;;;5075422;28;20056;-89
2022/09/25 12:28:03;;;;;;;7.63;4.55;;;;;;;;;;5075669;28;20052;-89
2022/09/25 12:30:46;;;;;;;6.10;4.65;;;;;;;;;;5058019;28;20532;-89
2022/09/25 12:33:18;;;;;;;5.40;4.90;;;;;;;;;;5075905;28;20048;-90
2022/09/25 12:35:58;;;;;;;5.32;4.70;;;;;;;;;;5075545;28;20045;-89
2022/09/25 12:38:46;;;;;;;5.88;4.50;;;;;;;;;;5075219;28;20052;-89
2022/09/25 12:41:27;;;;;;;7.97;5.10;;;;;;;;;;5059779;28;20048;-88
2022/09/25 12:44:00;;;;;;;8.32;5.47;;;;;;;;;;5057863;28;20053;-88
2022/09/25 12:46:28;;;;;;;6.30;5.15;;;;;;;;;;5075414;28;20048;-88
2022/09/25 12:49:00;;;;;;;7.10;5.72;;;;;;;;;;5057697;28;20051;-88
2022/09/25 12:51:39;;;;;;;7.65;5.97;;;;;;;;;;5057559;28;20055;-88
2022/09/25 12:54:22;;;;;;;7.78;6.85;;;;;;;;;;5075027;28;20051;-89
2022/09/25 12:56:56;;;;;;;9.25;7.80;;;;;;;;;;5057645;28;20064;-90
2022/09/25 12:59:30;;;;;;;12.73;8.30;;;;;;;;;;5057596;28;20136;-94
2022/09/25 13:02:04;;;;;;;11.68;8.45;;;;;;;;;;5057369;28;20061;-93
2022/09/25 13:04:41;;;;;;;10.73;9.05;;;;;;;;;;5058723;28;20044;-93
2022/09/25 13:07:25;;;;;;;15.27;11.45;;;;;;;;;;5062282;28;20060;-95
2022/09/25 13:09:53;;;;;;;12.48;11.18;;;;;;;;;;5078447;28;20053;-94
2022/09/25 13:12:23;;;;;;;13.38;12.02;;;;;;;;;;5058210;28;20049;-92
2022/09/25 13:14:51;;;;;;;17.25;12.38;;;;;;;;;;5075387;28;20130;-95
2022/09/25 13:17:18;;;;;;;12.82;11.63;;;;;;;;;;5075096;28;20496;-94
2022/09/25 13:19:45;;;;;;;14.38;12.68;;;;;;;;;;5056921;28;20051;-94
2022/09/25 13:22:14;;;;;;;14.25;12.85;;;;;;;;;;5074874;28;20047;-93
2022/09/25 13:24:52;;;;;;;13.85;12.45;;;;;;;;;;5056850;28;20139;-95
2022/09/25 13:27:21;;;;;;;14.02;12.57;;;;;;;;;;5074353;28;20048;-92
2022/09/25 13:29:54;;;;;;;15.95;13.07;;;;;;;;;;5056837;28;20049;-92
2022/09/25 13:32:22;;;;;;;16.90;13.17;;;;;;;;;;5056909;28;20048;-91
2022/09/25 13:34:57;;;;;;;13.55;12.15;;;;;;;;;;5074256;28;20048;-93
2022/09/25 13:37:30;;;;;;;17.88;14.95;;;;;;;;;;5056661;28;20048;-93
2022/09/25 13:42:45;;;;;;;15.23;13.65;;;;;;;;;;5074220;28;20049;-92
2022/09/25 13:45:21;;;;;;;16.20;14.10;;;;;;;;;;5056401;28;20465;-92
2022/09/25 13:47:59;;;;;;;15.35;13.80;;;;;;;;;;5056352;28;20426;-93
2022/09/25 13:50:38;;;;;;;14.50;13.00;;;;;;;;;;5057701;28;20105;-93
2022/09/25 13:53:16;;;;;;;13.70;12.30;;;;;;;;;;5074133;28;20045;-93
2022/09/25 13:55:50;;;;;;;13.57;12.18;;;;;;;;;;5073823;28;20062;-94
2022/09/25 13:58:19;;;;;;;16.17;14.07;;;;;;;;;;5058679;28;20098;-93
2022/09/25 14:00:52;;;;;;;14.23;12.50;;;;;;;;;;5057529;28;20060;-94
2022/09/25 14:03:42;;;;;;;14.87;13.20;;;;;;;;;;5074018;28;20049;-94
2022/09/25 14:06:19;;;;;;;12.93;11.63;;;;;;;;;;5073366;28;20056;-95
2022/09/25 14:08:47;;;;;;;11.93;10.82;;;;;;;;;;5073827;28;20412;-94
2022/09/25 14:11:17;;;;;;;16.38;13.65;;;;;;;;;;5056272;28;20048;-95
2022/09/25 14:13:45;;;;;;;17.63;12.98;;;;;;;;;;5056446;28;20404;-94
2022/09/25 14:16:18;;;;;;;17.10;13.98;;;;;;;;;;5073903;28;20090;-95
2022/09/25 14:18:47;;;;;;;14.73;13.02;;;;;;;;;;5057113;28;20052;-94
2022/09/25 14:21:21;;;;;;;14.88;11.18;;;;;;;;;;5059339;28;20109;-95
2022/09/25 14:23:53;;;;;;;11.55;9.95;;;;;;;;;;5059110;28;20130;-96
2022/09/25 14:26:21;;;;;;;11.25;10.15;;;;;;;;;;5063547;28;20115;-96
2022/09/25 14:28:49;;;;;;;10.32;9.32;;;;;;;;;;5082955;28;20051;-96
2022/09/25 14:31:20;;;;;;;10.93;9.90;;;;;;;;;;5063169;28;20063;-95
2022/09/25 14:34:06;;;;;;;15.52;9.43;;;;;;;;;;5060037;28;20136;-96
2022/09/25 14:36:35;;;;;;;10.15;9.15;;;;;;;;;;5081143;28;20052;-96
2022/09/25 14:39:08;;;;;;;10.95;9.85;;;;;;;;;;5082280;28;20051;-96
2022/09/25 14:41:42;;;;;;;10.80;8.65;;;;;;;;;;5066596;28;20404;-95
2022/09/25 14:44:27;;;;;;;12.75;8.52;;;;;;;;;;5085183;28;20045;-96
2022/09/25 14:46:55;;;;;;;9.98;9.05;;;;;;;;;;5069419;28;20048;-95
2022/09/25 14:49:27;;;;;;;11.38;9.13;;;;;;;;;;5074555;28;20049;-95
2022/09/25 14:51:56;;;;;;;12.35;8.88;;;;;;;;;;5097171;28;20039;-96
2022/09/25 14:54:25;;;;;;;10.50;9.57;;;;;;;;;;5095517;28;20051;-96
2022/09/25 14:56:55;;;;;;;10.82;9.65;;;;;;;;;;5080591;28;20091;-95
2022/09/25 14:59:30;;;;;;;11.23;10.02;;;;;;;;;;5079484;28;20075;-95
2022/09/25 15:01:59;;;;;;;11.23;10.13;;;;;;;;;;5094267;28;20048;-96
2022/09/25 15:04:29;;;;;;;11.15;10.05;;;;;;;;;;5080321;28;20028;-96
2022/09/25 15:07:00;;;;;;;9.38;8.57;;;;;;;;;;5077108;28;20053;-96
2022/09/25 15:09:28;;;;;;;7.43;6.72;;;;;;;;;;5093572;28;20060;-95
2022/09/25 15:11:55;;;;;;;7.68;6.97;;;;;;;;;;5079175;28;20048;-95
2022/09/25 15:14:22;;;;;;;6.22;5.72;;;;;;;;;;5078721;28;20051;-96
2022/09/25 15:19:41;;;;;;;5.00;4.20;;;;;;;;;;5098420;28;20059;-96
2022/09/25 15:22:09;;;;;;;3.65;3.45;;;;;;;;;;5079858;28;20048;-96
2022/09/25 15:24:37;;;;;;;4.05;3.80;;;;;;;;;;5075964;28;20055;-96
2022/09/25 15:27:05;;;;;;;3.80;3.50;;;;;;;;;;5093413;28;20052;-96
2022/09/25 15:29:36;;;;;;;4.85;4.45;;;;;;;;;;5076997;28;20432;-96
2022/09/25 15:32:04;;;;;;;7.45;6.78;;;;;;;;;;5087749;28;20058;-95
2022/09/25 15:34:32;;;;;;;7.28;6.63;;;;;;;;;;5071480;28;20044;-96